sensor_id;sensor_type;location;lat;lon;timestamp;temperature;humidity
73643;DHT22;61938;48.652;9.292;2023-12-29T00:02:19;8.40;99.90
73643;DHT22;61938;48.652;9.292;2023-12-29T00:04:45;8.40;99.90
73643;DHT22;61938;48.652;9.292;2023-12-29T00:07:11;8.40;99.90
73643;DHT22;61938;48.652;9.292;2023-12-29T00:09:36;8.40;99.90
73643;DHT22;61938;48.652;9.292;2023-12-29T00:12:06;8.40;99.90
73643;DHT22;61938;48.652;9.292;2023-12-29T00:14:33;8.40;99.90
73643;DHT22;61938;48.652;9.292;2023-12-29T00:16:58;8.40;99.90
73643;DHT22;61938;48.652;9.292;2023-12-29T00:19:25;8.40;99.90
73643;DHT22;61938;48.652;9.292;2023-12-29T00:21:50;8.40;99.90
73643;DHT22;61938;48.652;9.292;2023-12-29T00:24:16;8.40;99.90
73643;DHT22;61938;48.652;9.292;2023-12-29T00:26:42;8.40;99.90
73643;DHT22;61938;48.652;9.292;2023-12-29T00:29:07;8.40;99.90
73643;DHT22;61938;48.652;9.292;2023-12-29T00:31:33;8.40;99.90
73643;DHT22;61938;48.652;9.292;2023-12-29T00:33:59;8.40;99.90
73643;DHT22;61938;48.652;9.292;2023-12-29T00:36:24;8.40;99.90
73643;DHT22;61938;48.652;9.292;2023-12-29T00:38:50;8.40;99.90
73643;DHT22;61938;48.652;9.292;2023-12-29T00:41:15;8.40;99.90
73643;DHT22;61938;48.652;9.292;2023-12-29T00:43:41;8.40;99.90
73643;DHT22;61938;48.652;9.292;2023-12-29T00:46:07;8.50;99.90
73643;DHT22;61938;48.652;9.292;2023-12-29T00:48:34;8.50;99.90
73643;DHT22;61938;48.652;9.292;2023-12-29T00:51:02;8.40;99.90
73643;DHT22;61938;48.652;9.292;2023-12-29T00:53:28;8.40;99.90
73643;DHT22;61938;48.652;9.292;2023-12-29T00:55:59;8.40;99.90
73643;DHT22;61938;48.652;9.292;2023-12-29T00:58:24;8.40;99.90
73643;DHT22;61938;48.652;9.292;2023-12-29T01:00:50;8.40;99.90
73643;DHT22;61938;48.652;9.292;2023-12-29T01:03:16;8.40;99.90
73643;DHT22;61938;48.652;9.292;2023-12-29T01:05:41;8.50;99.90
73643;DHT22;61938;48.652;9.292;2023-12-29T01:08:07;8.40;99.90
73643;DHT22;61938;48.652;9.292;2023-12-29T01:10:32;8.50;99.90
73643;DHT22;61938;48.652;9.292;2023-12-29T01:12:58;8.50;99.90
73643;DHT22;61938;48.652;9.292;2023-12-29T01:15:23;8.50;99.90
73643;DHT22;61938;48.652;9.292;2023-12-29T01:17:49;8.50;99.90
73643;DHT22;61938;48.652;9.292;2023-12-29T01:20:14;8.40;99.90
73643;DHT22;61938;48.652;9.292;2023-12-29T01:22:40;8.40;99.90
73643;DHT22;61938;48.652;9.292;2023-12-29T01:25:05;8.40;99.90
73643;DHT22;61938;48.652;9.292;2023-12-29T01:27:31;8.40;99.90
73643;DHT22;61938;48.652;9.292;2023-12-29T01:29:57;8.40;99.90
73643;DHT22;61938;48.652;9.292;2023-12-29T01:32:22;8.40;99.90
73643;DHT22;61938;48.652;9.292;2023-12-29T01:34:48;8.40;99.90
73643;DHT22;61938;48.652;9.292;2023-12-29T01:37:13;8.40;99.90
73643;DHT22;61938;48.652;9.292;2023-12-29T01:39:40;8.20;99.90
73643;DHT22;61938;48.652;9.292;2023-12-29T01:42:07;8.40;99.90
73643;DHT22;61938;48.652;9.292;2023-12-29T01:44:33;8.40;99.90
73643;DHT22;61938;48.652;9.292;2023-12-29T01:46:59;8.50;99.90
73643;DHT22;61938;48.652;9.292;2023-12-29T01:49:27;8.40;99.90
73643;DHT22;61938;48.652;9.292;2023-12-29T01:51:58;8.40;99.90
73643;DHT22;61938;48.652;9.292;2023-12-29T01:54:26;8.40;99.90
73643;DHT22;61938;48.652;9.292;2023-12-29T01:56:54;8.50;99.90
73643;DHT22;61938;48.652;9.292;2023-12-29T01:59:21;8.40;99.90
73643;DHT22;61938;48.652;9.292;2023-12-29T02:01:47;8.40;99.90
73643;DHT22;61938;48.652;9.292;2023-12-29T02:04:13;8.40;99.90
73643;DHT22;61938;48.652;9.292;2023-12-29T02:06:39;8.40;99.90
73643;DHT22;61938;48.652;9.292;2023-12-29T02:09:05;8.40;99.90
73643;DHT22;61938;48.652;9.292;2023-12-29T02:11:31;8.50;99.90
73643;DHT22;61938;48.652;9.292;2023-12-29T02:13:59;8.50;99.90
73643;DHT22;61938;48.652;9.292;2023-12-29T02:16:37;8.40;99.90
73643;DHT22;61938;48.652;9.292;2023-12-29T02:19:13;8.50;99.90
73643;DHT22;61938;48.652;9.292;2023-12-29T02:21:44;8.40;99.90
73643;DHT22;61938;48.652;9.292;2023-12-29T02:24:09;8.40;99.90
73643;DHT22;61938;48.652;9.292;2023-12-29T02:26:36;8.40;99.90
73643;DHT22;61938;48.652;9.292;2023-12-29T02:29:02;8.50;99.90
73643;DHT22;61938;48.652;9.292;2023-12-29T02:31:31;8.40;99.90
73643;DHT22;61938;48.652;9.292;2023-12-29T02:34:03;8.50;99.90
73643;DHT22;61938;48.652;9.292;2023-12-29T02:36:32;8.50;99.90
73643;DHT22;61938;48.652;9.292;2023-12-29T02:38:58;8.50;99.90
73643;DHT22;61938;48.652;9.292;2023-12-29T02:41:24;8.50;99.90
73643;DHT22;61938;48.652;9.292;2023-12-29T02:43:50;8.50;99.90
73643;DHT22;61938;48.652;9.292;2023-12-29T02:46:15;8.50;99.90
73643;DHT22;61938;48.652;9.292;2023-12-29T02:48:42;8.50;99.90
73643;DHT22;61938;48.652;9.292;2023-12-29T02:51:07;8.50;99.90
73643;DHT22;61938;48.652;9.292;2023-12-29T02:53:34;8.50;99.90
73643;DHT22;61938;48.652;9.292;2023-12-29T02:55:59;8.50;99.90
73643;DHT22;61938;48.652;9.292;2023-12-29T02:58:25;8.60;99.90
73643;DHT22;61938;48.652;9.292;2023-12-29T03:00:50;8.50;99.90
73643;DHT22;61938;48.652;9.292;2023-12-29T03:03:16;8.50;99.90
73643;DHT22;61938;48.652;9.292;2023-12-29T03:05:41;8.50;99.90
73643;DHT22;61938;48.652;9.292;2023-12-29T03:08:06;8.60;99.90
73643;DHT22;61938;48.652;9.292;2023-12-29T03:10:32;8.50;99.90
73643;DHT22;61938;48.652;9.292;2023-12-29T03:12:57;8.60;99.90
73643;DHT22;61938;48.652;9.292;2023-12-29T03:15:23;8.60;99.90
73643;DHT22;61938;48.652;9.292;2023-12-29T03:17:48;8.60;99.90
73643;DHT22;61938;48.652;9.292;2023-12-29T03:20:14;8.60;99.90
73643;DHT22;61938;48.652;9.292;2023-12-29T03:22:39;8.60;99.90
73643;DHT22;61938;48.652;9.292;2023-12-29T03:25:05;8.60;99.90
73643;DHT22;61938;48.652;9.292;2023-12-29T03:27:31;8.60;99.90
73643;DHT22;61938;48.652;9.292;2023-12-29T03:29:59;8.60;99.90
73643;DHT22;61938;48.652;9.292;2023-12-29T03:32:25;10.10;99.90
73643;DHT22;61938;48.652;9.292;2023-12-29T03:34:50;8.60;99.90
73643;DHT22;61938;48.652;9.292;2023-12-29T03:37:16;8.60;99.90
73643;DHT22;61938;48.652;9.292;2023-12-29T03:39:41;8.60;99.90
73643;DHT22;61938;48.652;9.292;2023-12-29T03:42:07;8.60;99.90
73643;DHT22;61938;48.652;9.292;2023-12-29T03:44:32;8.60;99.90
73643;DHT22;61938;48.652;9.292;2023-12-29T03:46:58;8.60;99.90
73643;DHT22;61938;48.652;9.292;2023-12-29T03:49:24;8.60;99.90
73643;DHT22;61938;48.652;9.292;2023-12-29T03:51:49;8.60;99.90
73643;DHT22;61938;48.652;9.292;2023-12-29T03:54:15;8.60;99.90
73643;DHT22;61938;48.652;9.292;2023-12-29T03:56:42;8.60;99.90
73643;DHT22;61938;48.652;9.292;2023-12-29T03:59:07;8.60;99.90
73643;DHT22;61938;48.652;9.292;2023-12-29T04:01:33;8.60;99.90
73643;DHT22;61938;48.652;9.292;2023-12-29T04:03:59;8.60;99.90
73643;DHT22;61938;48.652;9.292;2023-12-29T04:06:25;8.60;99.90
73643;DHT22;61938;48.652;9.292;2023-12-29T04:08:50;8.60;99.90
73643;DHT22;61938;48.652;9.292;2023-12-29T04:11:16;8.60;99.90
73643;DHT22;61938;48.652;9.292;2023-12-29T04:13:41;8.60;99.90
73643;DHT22;61938;48.652;9.292;2023-12-29T04:16:07;8.60;99.90
73643;DHT22;61938;48.652;9.292;2023-12-29T04:18:32;8.50;99.90
73643;DHT22;61938;48.652;9.292;2023-12-29T04:20:58;8.50;99.90
73643;DHT22;61938;48.652;9.292;2023-12-29T04:23:23;8.50;99.90
73643;DHT22;61938;48.652;9.292;2023-12-29T04:25:49;8.50;99.90
73643;DHT22;61938;48.652;9.292;2023-12-29T04:28:14;8.60;99.90
73643;DHT22;61938;48.652;9.292;2023-12-29T04:30:40;8.50;99.90
73643;DHT22;61938;48.652;9.292;2023-12-29T04:33:05;8.50;99.90
73643;DHT22;61938;48.652;9.292;2023-12-29T04:35:31;8.50;99.90
73643;DHT22;61938;48.652;9.292;2023-12-29T04:37:56;8.50;99.90
73643;DHT22;61938;48.652;9.292;2023-12-29T04:40:22;8.50;99.90
73643;DHT22;61938;48.652;9.292;2023-12-29T04:42:47;8.50;99.90
73643;DHT22;61938;48.652;9.292;2023-12-29T04:45:13;8.50;99.90
73643;DHT22;61938;48.652;9.292;2023-12-29T04:47:38;8.50;99.90
73643;DHT22;61938;48.652;9.292;2023-12-29T04:50:05;8.50;99.90
73643;DHT22;61938;48.652;9.292;2023-12-29T04:52:33;8.50;99.90
73643;DHT22;61938;48.652;9.292;2023-12-29T04:54:59;8.50;99.90
73643;DHT22;61938;48.652;9.292;2023-12-29T04:57:25;8.50;99.90
73643;DHT22;61938;48.652;9.292;2023-12-29T04:59:50;8.50;99.90
73643;DHT22;61938;48.652;9.292;2023-12-29T05:02:16;8.50;99.90
73643;DHT22;61938;48.652;9.292;2023-12-29T05:04:41;8.50;99.90
73643;DHT22;61938;48.652;9.292;2023-12-29T05:07:09;8.50;99.90
73643;DHT22;61938;48.652;9.292;2023-12-29T05:09:34;8.50;99.90
73643;DHT22;61938;48.652;9.292;2023-12-29T05:12:00;8.50;99.90
73643;DHT22;61938;48.652;9.292;2023-12-29T05:14:26;8.50;99.90
73643;DHT22;61938;48.652;9.292;2023-12-29T05:16:51;8.50;99.90
73643;DHT22;61938;48.652;9.292;2023-12-29T05:19:17;8.50;99.90
73643;DHT22;61938;48.652;9.292;2023-12-29T05:21:42;8.50;99.90
73643;DHT22;61938;48.652;9.292;2023-12-29T05:24:08;8.50;99.90
73643;DHT22;61938;48.652;9.292;2023-12-29T05:26:33;8.50;99.90
73643;DHT22;61938;48.652;9.292;2023-12-29T05:28:59;8.50;99.90
73643;DHT22;61938;48.652;9.292;2023-12-29T05:31:24;8.50;99.90
73643;DHT22;61938;48.652;9.292;2023-12-29T05:33:50;8.50;99.90
73643;DHT22;61938;48.652;9.292;2023-12-29T05:36:16;8.50;99.90
73643;DHT22;61938;48.652;9.292;2023-12-29T05:38:45;8.50;99.90
73643;DHT22;61938;48.652;9.292;2023-12-29T05:41:13;8.50;99.90
73643;DHT22;61938;48.652;9.292;2023-12-29T05:43:39;8.50;99.90
73643;DHT22;61938;48.652;9.292;2023-12-29T05:46:12;8.50;99.90
73643;DHT22;61938;48.652;9.292;2023-12-29T05:48:38;8.50;99.90
73643;DHT22;61938;48.652;9.292;2023-12-29T05:51:08;8.50;99.90
73643;DHT22;61938;48.652;9.292;2023-12-29T05:53:34;8.10;99.90
73643;DHT22;61938;48.652;9.292;2023-12-29T05:56:00;8.40;99.90
73643;DHT22;61938;48.652;9.292;2023-12-29T05:58:25;8.50;99.90
73643;DHT22;61938;48.652;9.292;2023-12-29T06:00:51;8.50;99.90
73643;DHT22;61938;48.652;9.292;2023-12-29T06:03:17;8.40;99.90
73643;DHT22;61938;48.652;9.292;2023-12-29T06:05:42;8.40;99.90
73643;DHT22;61938;48.652;9.292;2023-12-29T06:08:08;8.50;99.90
73643;DHT22;61938;48.652;9.292;2023-12-29T06:10:33;8.50;99.90
73643;DHT22;61938;48.652;9.292;2023-12-29T06:13:02;8.50;99.90
73643;DHT22;61938;48.652;9.292;2023-12-29T06:15:28;8.50;99.90
73643;DHT22;61938;48.652;9.292;2023-12-29T06:17:54;8.50;99.90
73643;DHT22;61938;48.652;9.292;2023-12-29T06:20:19;8.50;99.90
73643;DHT22;61938;48.652;9.292;2023-12-29T06:22:45;8.50;99.90
73643;DHT22;61938;48.652;9.292;2023-12-29T06:25:11;8.50;99.90
73643;DHT22;61938;48.652;9.292;2023-12-29T06:27:37;8.50;99.90
73643;DHT22;61938;48.652;9.292;2023-12-29T06:30:07;8.50;99.90
73643;DHT22;61938;48.652;9.292;2023-12-29T06:32:33;8.50;99.90
73643;DHT22;61938;48.652;9.292;2023-12-29T06:34:59;8.50;99.90
73643;DHT22;61938;48.652;9.292;2023-12-29T06:37:24;8.50;99.90
73643;DHT22;61938;48.652;9.292;2023-12-29T06:39:50;8.50;99.90
73643;DHT22;61938;48.652;9.292;2023-12-29T06:42:15;8.50;99.90
73643;DHT22;61938;48.652;9.292;2023-12-29T06:44:41;8.40;99.90
73643;DHT22;61938;48.652;9.292;2023-12-29T06:47:06;8.40;99.90
73643;DHT22;61938;48.652;9.292;2023-12-29T06:49:35;8.40;99.90
73643;DHT22;61938;48.652;9.292;2023-12-29T06:52:01;8.40;99.90
73643;DHT22;61938;48.652;9.292;2023-12-29T06:54:27;8.40;99.90
73643;DHT22;61938;48.652;9.292;2023-12-29T06:56:52;8.40;99.90
73643;DHT22;61938;48.652;9.292;2023-12-29T06:59:18;8.40;99.90
73643;DHT22;61938;48.652;9.292;2023-12-29T07:01:48;8.40;99.90
73643;DHT22;61938;48.652;9.292;2023-12-29T07:04:14;8.40;99.90
73643;DHT22;61938;48.652;9.292;2023-12-29T07:06:41;8.40;99.90
73643;DHT22;61938;48.652;9.292;2023-12-29T07:09:06;8.40;99.90
73643;DHT22;61938;48.652;9.292;2023-12-29T07:11:33;8.40;99.90
73643;DHT22;61938;48.652;9.292;2023-12-29T07:13:58;8.50;99.90
73643;DHT22;61938;48.652;9.292;2023-12-29T07:16:24;8.50;99.90
73643;DHT22;61938;48.652;9.292;2023-12-29T07:18:49;8.50;99.90
73643;DHT22;61938;48.652;9.292;2023-12-29T07:21:15;8.40;99.90
73643;DHT22;61938;48.652;9.292;2023-12-29T07:23:42;8.40;99.90
73643;DHT22;61938;48.652;9.292;2023-12-29T07:26:07;8.40;99.90
73643;DHT22;61938;48.652;9.292;2023-12-29T07:28:33;8.40;99.90
73643;DHT22;61938;48.652;9.292;2023-12-29T07:31:00;8.40;99.90
73643;DHT22;61938;48.652;9.292;2023-12-29T07:33:26;8.40;99.90
73643;DHT22;61938;48.652;9.292;2023-12-29T07:35:51;8.40;99.90
73643;DHT22;61938;48.652;9.292;2023-12-29T07:38:17;8.40;99.90
73643;DHT22;61938;48.652;9.292;2023-12-29T07:40:42;8.40;99.90
73643;DHT22;61938;48.652;9.292;2023-12-29T07:43:08;8.40;99.90
73643;DHT22;61938;48.652;9.292;2023-12-29T07:45:33;8.40;99.90
73643;DHT22;61938;48.652;9.292;2023-12-29T07:47:59;8.40;99.90
73643;DHT22;61938;48.652;9.292;2023-12-29T07:50:25;8.40;99.90
73643;DHT22;61938;48.652;9.292;2023-12-29T07:52:50;8.40;99.90
73643;DHT22;61938;48.652;9.292;2023-12-29T07:55:16;8.40;99.90
73643;DHT22;61938;48.652;9.292;2023-12-29T07:57:42;8.40;99.90
73643;DHT22;61938;48.652;9.292;2023-12-29T08:00:09;8.40;99.90
73643;DHT22;61938;48.652;9.292;2023-12-29T08:02:34;8.40;99.90
73643;DHT22;61938;48.652;9.292;2023-12-29T08:05:00;8.50;99.90
73643;DHT22;61938;48.652;9.292;2023-12-29T08:07:26;8.50;99.90
73643;DHT22;61938;48.652;9.292;2023-12-29T08:09:51;8.50;99.90
73643;DHT22;61938;48.652;9.292;2023-12-29T08:12:17;8.50;99.90
73643;DHT22;61938;48.652;9.292;2023-12-29T08:14:43;8.50;99.90
73643;DHT22;61938;48.652;9.292;2023-12-29T08:17:08;8.50;99.90
73643;DHT22;61938;48.652;9.292;2023-12-29T08:19:34;8.50;99.90
73643;DHT22;61938;48.652;9.292;2023-12-29T08:21:59;8.60;99.90
73643;DHT22;61938;48.652;9.292;2023-12-29T08:24:25;8.60;99.90
73643;DHT22;61938;48.652;9.292;2023-12-29T08:26:50;8.60;99.90
73643;DHT22;61938;48.652;9.292;2023-12-29T08:29:16;8.60;99.90
73643;DHT22;61938;48.652;9.292;2023-12-29T08:31:43;8.60;99.90
73643;DHT22;61938;48.652;9.292;2023-12-29T08:34:09;8.70;99.90
73643;DHT22;61938;48.652;9.292;2023-12-29T08:36:34;8.70;99.90
73643;DHT22;61938;48.652;9.292;2023-12-29T08:39:01;8.70;99.90
73643;DHT22;61938;48.652;9.292;2023-12-29T08:41:26;8.70;99.90
73643;DHT22;61938;48.652;9.292;2023-12-29T08:43:52;8.70;99.90
73643;DHT22;61938;48.652;9.292;2023-12-29T08:46:17;8.70;99.90
73643;DHT22;61938;48.652;9.292;2023-12-29T08:48:43;8.70;99.90
73643;DHT22;61938;48.652;9.292;2023-12-29T08:51:09;8.70;99.90
73643;DHT22;61938;48.652;9.292;2023-12-29T08:53:34;8.80;99.90
73643;DHT22;61938;48.652;9.292;2023-12-29T08:56:01;8.80;99.90
73643;DHT22;61938;48.652;9.292;2023-12-29T08:58:27;8.80;99.90
73643;DHT22;61938;48.652;9.292;2023-12-29T09:00:52;8.80;99.90
73643;DHT22;61938;48.652;9.292;2023-12-29T09:03:18;8.80;99.90
73643;DHT22;61938;48.652;9.292;2023-12-29T09:05:44;8.90;99.90
73643;DHT22;61938;48.652;9.292;2023-12-29T09:08:09;8.90;99.90
73643;DHT22;61938;48.652;9.292;2023-12-29T09:10:35;8.90;99.90
73643;DHT22;61938;48.652;9.292;2023-12-29T09:13:00;8.90;99.90
73643;DHT22;61938;48.652;9.292;2023-12-29T09:15:26;8.90;99.90
73643;DHT22;61938;48.652;9.292;2023-12-29T09:17:51;8.90;99.90
73643;DHT22;61938;48.652;9.292;2023-12-29T09:20:17;8.90;99.90
73643;DHT22;61938;48.652;9.292;2023-12-29T09:22:42;8.90;99.90
73643;DHT22;61938;48.652;9.292;2023-12-29T09:25:08;8.90;99.90
73643;DHT22;61938;48.652;9.292;2023-12-29T09:27:34;9.00;99.90
73643;DHT22;61938;48.652;9.292;2023-12-29T09:29:59;9.00;99.90
73643;DHT22;61938;48.652;9.292;2023-12-29T09:32:25;9.00;99.90
73643;DHT22;61938;48.652;9.292;2023-12-29T09:34:50;9.00;99.90
73643;DHT22;61938;48.652;9.292;2023-12-29T09:37:17;9.00;99.90
73643;DHT22;61938;48.652;9.292;2023-12-29T09:39:43;9.00;99.90
73643;DHT22;61938;48.652;9.292;2023-12-29T09:42:09;9.10;99.90
73643;DHT22;61938;48.652;9.292;2023-12-29T09:44:38;9.10;99.90
73643;DHT22;61938;48.652;9.292;2023-12-29T09:47:04;9.10;99.90
73643;DHT22;61938;48.652;9.292;2023-12-29T09:49:38;9.10;99.90
73643;DHT22;61938;48.652;9.292;2023-12-29T09:52:07;9.10;99.90
73643;DHT22;61938;48.652;9.292;2023-12-29T09:54:35;9.10;99.90
73643;DHT22;61938;48.652;9.292;2023-12-29T09:57:03;9.10;99.90
73643;DHT22;61938;48.652;9.292;2023-12-29T09:59:29;9.20;99.90
73643;DHT22;61938;48.652;9.292;2023-12-29T10:01:56;9.20;99.90
73643;DHT22;61938;48.652;9.292;2023-12-29T10:04:21;9.20;99.90
73643;DHT22;61938;48.652;9.292;2023-12-29T10:06:48;9.20;99.90
73643;DHT22;61938;48.652;9.292;2023-12-29T10:09:17;9.30;99.90
73643;DHT22;61938;48.652;9.292;2023-12-29T10:11:47;9.30;99.90
73643;DHT22;61938;48.652;9.292;2023-12-29T10:14:26;9.40;99.90
73643;DHT22;61938;48.652;9.292;2023-12-29T10:17:07;9.40;99.90
73643;DHT22;61938;48.652;9.292;2023-12-29T10:19:39;9.40;99.90
73643;DHT22;61938;48.652;9.292;2023-12-29T10:24:56;9.40;99.90
73643;DHT22;61938;48.652;9.292;2023-12-29T10:27:22;9.40;99.90
73643;DHT22;61938;48.652;9.292;2023-12-29T10:29:48;9.40;99.90
73643;DHT22;61938;48.652;9.292;2023-12-29T10:32:13;9.40;99.90
73643;DHT22;61938;48.652;9.292;2023-12-29T10:34:39;9.50;99.90
73643;DHT22;61938;48.652;9.292;2023-12-29T10:37:05;9.50;99.90
73643;DHT22;61938;48.652;9.292;2023-12-29T10:39:38;9.50;99.90
73643;DHT22;61938;48.652;9.292;2023-12-29T10:42:05;9.60;99.90
73643;DHT22;61938;48.652;9.292;2023-12-29T10:44:35;9.60;99.90
73643;DHT22;61938;48.652;9.292;2023-12-29T10:47:10;9.60;99.90
73643;DHT22;61938;48.652;9.292;2023-12-29T10:49:37;9.60;99.90
73643;DHT22;61938;48.652;9.292;2023-12-29T10:52:23;9.60;99.90
73643;DHT22;61938;48.652;9.292;2023-12-29T10:54:48;9.70;99.90
73643;DHT22;61938;48.652;9.292;2023-12-29T10:57:14;9.70;99.90
73643;DHT22;61938;48.652;9.292;2023-12-29T10:59:40;9.70;99.90
73643;DHT22;61938;48.652;9.292;2023-12-29T11:02:05;9.80;99.90
73643;DHT22;61938;48.652;9.292;2023-12-29T11:04:33;9.80;99.90
73643;DHT22;61938;48.652;9.292;2023-12-29T11:06:59;9.80;99.90
73643;DHT22;61938;48.652;9.292;2023-12-29T11:09:32;9.90;99.90
73643;DHT22;61938;48.652;9.292;2023-12-29T11:12:01;10.00;99.90
73643;DHT22;61938;48.652;9.292;2023-12-29T11:14:27;10.10;99.90
73643;DHT22;61938;48.652;9.292;2023-12-29T11:16:57;10.10;99.90
73643;DHT22;61938;48.652;9.292;2023-12-29T11:19:22;10.10;99.90
73643;DHT22;61938;48.652;9.292;2023-12-29T11:21:57;10.10;99.90
73643;DHT22;61938;48.652;9.292;2023-12-29T11:24:24;10.20;99.90
73643;DHT22;61938;48.652;9.292;2023-12-29T11:26:49;10.20;99.90
73643;DHT22;61938;48.652;9.292;2023-12-29T11:29:18;10.20;99.90
73643;DHT22;61938;48.652;9.292;2023-12-29T11:31:45;10.30;99.90
73643;DHT22;61938;48.652;9.292;2023-12-29T11:34:24;10.30;99.90
73643;DHT22;61938;48.652;9.292;2023-12-29T11:36:59;10.40;99.90
73643;DHT22;61938;48.652;9.292;2023-12-29T11:39:38;10.40;99.90
73643;DHT22;61938;48.652;9.292;2023-12-29T11:42:21;10.50;99.90
73643;DHT22;61938;48.652;9.292;2023-12-29T11:44:46;10.60;99.90
73643;DHT22;61938;48.652;9.292;2023-12-29T11:47:35;10.80;99.90
73643;DHT22;61938;48.652;9.292;2023-12-29T11:50:02;10.60;99.90
73643;DHT22;61938;48.652;9.292;2023-12-29T11:52:38;10.60;99.90
73643;DHT22;61938;48.652;9.292;2023-12-29T11:55:14;10.70;99.90
73643;DHT22;61938;48.652;9.292;2023-12-29T11:57:45;10.70;99.90
73643;DHT22;61938;48.652;9.292;2023-12-29T12:00:11;10.80;99.90
73643;DHT22;61938;48.652;9.292;2023-12-29T12:02:37;10.80;99.90
73643;DHT22;61938;48.652;9.292;2023-12-29T12:05:03;10.80;99.90
73643;DHT22;61938;48.652;9.292;2023-12-29T12:12:45;11.00;99.90
73643;DHT22;61938;48.652;9.292;2023-12-29T12:18:05;11.00;99.90
73643;DHT22;61938;48.652;9.292;2023-12-29T12:20:33;11.10;99.90
73643;DHT22;61938;48.652;9.292;2023-12-29T12:23:10;11.10;99.90
73643;DHT22;61938;48.652;9.292;2023-12-29T12:25:37;11.10;99.90
73643;DHT22;61938;48.652;9.292;2023-12-29T12:28:08;11.10;99.90
73643;DHT22;61938;48.652;9.292;2023-12-29T12:30:35;11.10;99.90
73643;DHT22;61938;48.652;9.292;2023-12-29T12:33:02;11.10;99.90
73643;DHT22;61938;48.652;9.292;2023-12-29T12:35:28;11.10;99.90
73643;DHT22;61938;48.652;9.292;2023-12-29T12:38:13;11.10;99.90
73643;DHT22;61938;48.652;9.292;2023-12-29T12:40:39;11.10;99.90
73643;DHT22;61938;48.652;9.292;2023-12-29T12:43:06;11.10;99.90
73643;DHT22;61938;48.652;9.292;2023-12-29T12:45:43;11.00;99.90
73643;DHT22;61938;48.652;9.292;2023-12-29T12:48:54;11.10;99.90
73643;DHT22;61938;48.652;9.292;2023-12-29T12:51:14;11.10;99.90
73643;DHT22;61938;48.652;9.292;2023-12-29T12:53:42;11.10;99.90
73643;DHT22;61938;48.652;9.292;2023-12-29T12:56:10;11.10;99.90
73643;DHT22;61938;48.652;9.292;2023-12-29T12:58:36;11.10;99.90
73643;DHT22;61938;48.652;9.292;2023-12-29T13:01:02;11.10;99.90
73643;DHT22;61938;48.652;9.292;2023-12-29T13:03:28;11.10;99.90
73643;DHT22;61938;48.652;9.292;2023-12-29T13:05:56;11.10;99.90
73643;DHT22;61938;48.652;9.292;2023-12-29T13:08:23;11.10;99.90
73643;DHT22;61938;48.652;9.292;2023-12-29T13:10:49;11.10;99.90
73643;DHT22;61938;48.652;9.292;2023-12-29T13:13:14;11.10;99.90
73643;DHT22;61938;48.652;9.292;2023-12-29T13:15:47;11.10;99.90
73643;DHT22;61938;48.652;9.292;2023-12-29T13:18:15;11.10;99.90
73643;DHT22;61938;48.652;9.292;2023-12-29T13:20:47;11.10;99.90
73643;DHT22;61938;48.652;9.292;2023-12-29T13:23:13;11.10;99.90
73643;DHT22;61938;48.652;9.292;2023-12-29T13:25:40;11.20;99.90
73643;DHT22;61938;48.652;9.292;2023-12-29T13:28:08;11.20;99.90
73643;DHT22;61938;48.652;9.292;2023-12-29T13:30:34;11.20;99.90
73643;DHT22;61938;48.652;9.292;2023-12-29T13:33:09;11.20;99.90
73643;DHT22;61938;48.652;9.292;2023-12-29T13:35:47;11.20;99.90
73643;DHT22;61938;48.652;9.292;2023-12-29T13:38:22;11.20;99.90
73643;DHT22;61938;48.652;9.292;2023-12-29T13:40:56;11.20;99.90
73643;DHT22;61938;48.652;9.292;2023-12-29T13:43:24;11.20;99.90
73643;DHT22;61938;48.652;9.292;2023-12-29T13:45:49;11.20;99.90
73643;DHT22;61938;48.652;9.292;2023-12-29T13:48:16;11.20;99.90
73643;DHT22;61938;48.652;9.292;2023-12-29T13:50:48;11.20;99.90
73643;DHT22;61938;48.652;9.292;2023-12-29T13:53:20;11.20;99.90
73643;DHT22;61938;48.652;9.292;2023-12-29T13:55:46;11.20;99.90
73643;DHT22;61938;48.652;9.292;2023-12-29T13:58:12;11.10;99.90
73643;DHT22;61938;48.652;9.292;2023-12-29T14:00:42;11.20;99.90
73643;DHT22;61938;48.652;9.292;2023-12-29T14:03:15;11.20;99.90
73643;DHT22;61938;48.652;9.292;2023-12-29T14:05:51;11.20;99.90
73643;DHT22;61938;48.652;9.292;2023-12-29T14:10:56;11.10;99.90
73643;DHT22;61938;48.652;9.292;2023-12-29T14:13:22;11.10;99.90
73643;DHT22;61938;48.652;9.292;2023-12-29T14:15:47;11.10;99.90
73643;DHT22;61938;48.652;9.292;2023-12-29T14:18:42;11.00;99.90
73643;DHT22;61938;48.652;9.292;2023-12-29T14:21:29;11.00;99.90
73643;DHT22;61938;48.652;9.292;2023-12-29T14:24:12;11.00;99.90
73643;DHT22;61938;48.652;9.292;2023-12-29T14:26:40;11.00;99.90
73643;DHT22;61938;48.652;9.292;2023-12-29T14:29:08;11.00;99.90
73643;DHT22;61938;48.652;9.292;2023-12-29T14:31:40;11.00;99.90
73643;DHT22;61938;48.652;9.292;2023-12-29T14:34:07;11.00;99.90
73643;DHT22;61938;48.652;9.292;2023-12-29T14:36:33;10.90;99.90
73643;DHT22;61938;48.652;9.292;2023-12-29T14:39:00;10.90;99.90
73643;DHT22;61938;48.652;9.292;2023-12-29T14:41:26;10.90;99.90
73643;DHT22;61938;48.652;9.292;2023-12-29T14:43:52;10.90;99.90
73643;DHT22;61938;48.652;9.292;2023-12-29T14:46:17;10.80;99.90
73643;DHT22;61938;48.652;9.292;2023-12-29T14:48:43;10.80;99.90
73643;DHT22;61938;48.652;9.292;2023-12-29T14:51:09;10.80;99.90
73643;DHT22;61938;48.652;9.292;2023-12-29T14:53:34;10.80;99.90
73643;DHT22;61938;48.652;9.292;2023-12-29T14:56:00;10.80;99.90
73643;DHT22;61938;48.652;9.292;2023-12-29T14:58:26;10.70;99.90
73643;DHT22;61938;48.652;9.292;2023-12-29T15:00:52;10.70;99.90
73643;DHT22;61938;48.652;9.292;2023-12-29T15:03:17;10.70;99.90
73643;DHT22;61938;48.652;9.292;2023-12-29T15:05:45;10.70;99.90
73643;DHT22;61938;48.652;9.292;2023-12-29T15:08:11;10.70;99.90
73643;DHT22;61938;48.652;9.292;2023-12-29T15:10:37;10.60;99.90
73643;DHT22;61938;48.652;9.292;2023-12-29T15:13:03;10.60;99.90
73643;DHT22;61938;48.652;9.292;2023-12-29T15:15:30;10.60;99.90
73643;DHT22;61938;48.652;9.292;2023-12-29T15:17:56;10.60;99.90
73643;DHT22;61938;48.652;9.292;2023-12-29T15:20:21;10.50;99.90
73643;DHT22;61938;48.652;9.292;2023-12-29T15:22:47;10.50;99.90
73643;DHT22;61938;48.652;9.292;2023-12-29T15:25:14;10.50;99.90
73643;DHT22;61938;48.652;9.292;2023-12-29T15:27:40;11.40;99.90
73643;DHT22;61938;48.652;9.292;2023-12-29T15:30:06;10.50;99.90
73643;DHT22;61938;48.652;9.292;2023-12-29T15:32:31;10.50;99.90
73643;DHT22;61938;48.652;9.292;2023-12-29T15:34:57;10.40;99.90
73643;DHT22;61938;48.652;9.292;2023-12-29T15:37:22;10.40;99.90
73643;DHT22;61938;48.652;9.292;2023-12-29T15:39:48;10.40;99.90
73643;DHT22;61938;48.652;9.292;2023-12-29T15:42:13;10.30;99.90
73643;DHT22;61938;48.652;9.292;2023-12-29T15:44:39;10.30;99.90
73643;DHT22;61938;48.652;9.292;2023-12-29T15:47:04;10.30;99.90
73643;DHT22;61938;48.652;9.292;2023-12-29T15:49:30;10.70;99.90
73643;DHT22;61938;48.652;9.292;2023-12-29T15:51:56;10.20;99.90
73643;DHT22;61938;48.652;9.292;2023-12-29T15:54:21;10.20;99.90
73643;DHT22;61938;48.652;9.292;2023-12-29T15:56:47;10.10;99.90